sensor_id;sensor_type;location;lat;lon;timestamp;temperature;humidity
29713;DHT22;16623;53.632;10.016;2023-03-23T00:02:29;11.30;99.90
29713;DHT22;16623;53.632;10.016;2023-03-23T00:04:55;11.30;99.90
29713;DHT22;16623;53.632;10.016;2023-03-23T00:07:21;11.30;99.90
29713;DHT22;16623;53.632;10.016;2023-03-23T00:09:53;11.20;99.90
29713;DHT22;16623;53.632;10.016;2023-03-23T00:12:23;11.20;99.90
29713;DHT22;16623;53.632;10.016;2023-03-23T00:15:04;11.00;99.90
29713;DHT22;16623;53.632;10.016;2023-03-23T00:17:31;11.00;99.90
29713;DHT22;16623;53.632;10.016;2023-03-23T00:20:00;11.00;99.90
29713;DHT22;16623;53.632;10.016;2023-03-23T00:22:30;11.00;99.90
29713;DHT22;16623;53.632;10.016;2023-03-23T00:24:56;11.00;99.90
29713;DHT22;16623;53.632;10.016;2023-03-23T00:27:22;10.90;99.90
29713;DHT22;16623;53.632;10.016;2023-03-23T00:29:49;10.90;99.90
29713;DHT22;16623;53.632;10.016;2023-03-23T00:32:19;10.80;99.90
29713;DHT22;16623;53.632;10.016;2023-03-23T00:34:46;10.80;99.90
29713;DHT22;16623;53.632;10.016;2023-03-23T00:37:14;10.80;99.90
29713;DHT22;16623;53.632;10.016;2023-03-23T00:39:42;10.80;99.90
29713;DHT22;16623;53.632;10.016;2023-03-23T00:42:10;10.80;99.90
29713;DHT22;16623;53.632;10.016;2023-03-23T00:44:37;10.80;99.90
29713;DHT22;16623;53.632;10.016;2023-03-23T00:47:03;10.80;99.90
29713;DHT22;16623;53.632;10.016;2023-03-23T00:49:28;10.80;99.90
29713;DHT22;16623;53.632;10.016;2023-03-23T00:51:58;10.80;99.90
29713;DHT22;16623;53.632;10.016;2023-03-23T00:54:24;11.10;99.90
29713;DHT22;16623;53.632;10.016;2023-03-23T00:56:51;10.90;99.90
29713;DHT22;16623;53.632;10.016;2023-03-23T00:59:17;11.00;99.90
29713;DHT22;16623;53.632;10.016;2023-03-23T01:01:43;10.90;99.90
29713;DHT22;16623;53.632;10.016;2023-03-23T01:04:08;10.90;99.90
29713;DHT22;16623;53.632;10.016;2023-03-23T01:06:38;10.90;99.90
29713;DHT22;16623;53.632;10.016;2023-03-23T01:09:09;10.80;99.90
29713;DHT22;16623;53.632;10.016;2023-03-23T01:11:35;10.90;99.90
29713;DHT22;16623;53.632;10.016;2023-03-23T01:14:02;10.80;99.90
29713;DHT22;16623;53.632;10.016;2023-03-23T01:16:29;10.80;99.90
29713;DHT22;16623;53.632;10.016;2023-03-23T01:18:55;10.90;99.90
29713;DHT22;16623;53.632;10.016;2023-03-23T01:21:21;10.90;99.90
29713;DHT22;16623;53.632;10.016;2023-03-23T01:23:47;10.80;99.90
29713;DHT22;16623;53.632;10.016;2023-03-23T01:26:15;10.90;99.90
29713;DHT22;16623;53.632;10.016;2023-03-23T01:28:42;10.90;99.90
29713;DHT22;16623;53.632;10.016;2023-03-23T01:31:11;11.00;99.90
29713;DHT22;16623;53.632;10.016;2023-03-23T01:33:41;10.90;99.90
29713;DHT22;16623;53.632;10.016;2023-03-23T01:36:15;10.90;99.90
29713;DHT22;16623;53.632;10.016;2023-03-23T01:38:43;10.90;99.90
29713;DHT22;16623;53.632;10.016;2023-03-23T01:41:10;10.90;99.90
29713;DHT22;16623;53.632;10.016;2023-03-23T01:43:52;10.90;99.90
29713;DHT22;16623;53.632;10.016;2023-03-23T01:46:18;11.00;99.90
29713;DHT22;16623;53.632;10.016;2023-03-23T01:48:44;11.00;99.90
29713;DHT22;16623;53.632;10.016;2023-03-23T01:51:14;10.90;99.90
29713;DHT22;16623;53.632;10.016;2023-03-23T01:53:45;10.90;99.90
29713;DHT22;16623;53.632;10.016;2023-03-23T01:56:13;10.90;99.90
29713;DHT22;16623;53.632;10.016;2023-03-23T01:58:40;10.90;99.90
29713;DHT22;16623;53.632;10.016;2023-03-23T02:01:10;10.90;99.90
29713;DHT22;16623;53.632;10.016;2023-03-23T02:03:41;11.10;99.90
29713;DHT22;16623;53.632;10.016;2023-03-23T02:06:07;11.00;99.90
29713;DHT22;16623;53.632;10.016;2023-03-23T02:08:34;11.00;99.90
29713;DHT22;16623;53.632;10.016;2023-03-23T02:11:00;11.00;99.90
29713;DHT22;16623;53.632;10.016;2023-03-23T02:13:27;10.90;99.90
29713;DHT22;16623;53.632;10.016;2023-03-23T02:16:08;11.00;99.90
29713;DHT22;16623;53.632;10.016;2023-03-23T02:21:26;10.90;99.90
29713;DHT22;16623;53.632;10.016;2023-03-23T02:24:20;10.90;99.90
29713;DHT22;16623;53.632;10.016;2023-03-23T02:29:31;10.90;99.90
29713;DHT22;16623;53.632;10.016;2023-03-23T02:32:16;10.90;99.90
29713;DHT22;16623;53.632;10.016;2023-03-23T02:34:53;10.90;99.90
29713;DHT22;16623;53.632;10.016;2023-03-23T02:37:31;11.50;99.90
29713;DHT22;16623;53.632;10.016;2023-03-23T02:40:21;10.90;99.90
29713;DHT22;16623;53.632;10.016;2023-03-23T02:42:53;10.90;99.90
29713;DHT22;16623;53.632;10.016;2023-03-23T02:45:21;10.90;99.90
29713;DHT22;16623;53.632;10.016;2023-03-23T02:47:51;10.80;99.90
29713;DHT22;16623;53.632;10.016;2023-03-23T02:50:18;10.90;99.90
29713;DHT22;16623;53.632;10.016;2023-03-23T02:52:45;10.90;99.90
29713;DHT22;16623;53.632;10.016;2023-03-23T02:55:15;10.80;99.90
29713;DHT22;16623;53.632;10.016;2023-03-23T02:57:41;11.00;99.90
29713;DHT22;16623;53.632;10.016;2023-03-23T03:00:14;10.90;99.90
29713;DHT22;16623;53.632;10.016;2023-03-23T03:02:43;10.90;99.90
29713;DHT22;16623;53.632;10.016;2023-03-23T03:05:34;10.90;99.90
29713;DHT22;16623;53.632;10.016;2023-03-23T03:11:03;10.90;99.90
29713;DHT22;16623;53.632;10.016;2023-03-23T03:19:08;11.00;99.90
29713;DHT22;16623;53.632;10.016;2023-03-23T03:21:36;11.00;99.90
29713;DHT22;16623;53.632;10.016;2023-03-23T03:24:03;11.00;99.90
29713;DHT22;16623;53.632;10.016;2023-03-23T03:26:33;11.00;99.90
29713;DHT22;16623;53.632;10.016;2023-03-23T03:29:02;11.00;99.90
29713;DHT22;16623;53.632;10.016;2023-03-23T03:31:35;11.00;99.90
29713;DHT22;16623;53.632;10.016;2023-03-23T03:34:02;10.90;99.90
29713;DHT22;16623;53.632;10.016;2023-03-23T03:36:30;11.00;99.90
29713;DHT22;16623;53.632;10.016;2023-03-23T03:39:02;11.00;99.90
29713;DHT22;16623;53.632;10.016;2023-03-23T03:41:33;11.00;99.90
29713;DHT22;16623;53.632;10.016;2023-03-23T03:43:59;11.10;99.90
29713;DHT22;16623;53.632;10.016;2023-03-23T03:46:24;11.10;99.90
29713;DHT22;16623;53.632;10.016;2023-03-23T03:48:52;11.10;99.90
29713;DHT22;16623;53.632;10.016;2023-03-23T03:51:18;11.10;99.90
29713;DHT22;16623;53.632;10.016;2023-03-23T03:53:44;11.10;99.90
29713;DHT22;16623;53.632;10.016;2023-03-23T03:56:09;11.10;99.90
29713;DHT22;16623;53.632;10.016;2023-03-23T03:58:35;11.20;99.90
29713;DHT22;16623;53.632;10.016;2023-03-23T04:01:02;11.20;99.90
29713;DHT22;16623;53.632;10.016;2023-03-23T04:03:27;11.20;99.90
29713;DHT22;16623;53.632;10.016;2023-03-23T04:05:56;11.20;99.90
29713;DHT22;16623;53.632;10.016;2023-03-23T04:08:22;11.20;99.90
29713;DHT22;16623;53.632;10.016;2023-03-23T04:10:48;11.20;99.90
29713;DHT22;16623;53.632;10.016;2023-03-23T04:13:14;11.20;99.90
29713;DHT22;16623;53.632;10.016;2023-03-23T04:15:39;11.20;99.90
29713;DHT22;16623;53.632;10.016;2023-03-23T04:18:05;11.30;99.90
29713;DHT22;16623;53.632;10.016;2023-03-23T04:20:31;11.30;99.90
29713;DHT22;16623;53.632;10.016;2023-03-23T04:22:57;11.20;99.90
29713;DHT22;16623;53.632;10.016;2023-03-23T04:25:23;11.30;99.90
29713;DHT22;16623;53.632;10.016;2023-03-23T04:27:50;11.40;99.90
29713;DHT22;16623;53.632;10.016;2023-03-23T04:30:23;11.40;99.90
29713;DHT22;16623;53.632;10.016;2023-03-23T04:35:21;11.30;99.90
29713;DHT22;16623;53.632;10.016;2023-03-23T04:37:47;11.30;99.90
29713;DHT22;16623;53.632;10.016;2023-03-23T04:40:14;11.30;99.90
29713;DHT22;16623;53.632;10.016;2023-03-23T04:42:43;11.30;99.90
29713;DHT22;16623;53.632;10.016;2023-03-23T04:45:16;11.30;99.90
29713;DHT22;16623;53.632;10.016;2023-03-23T04:47:48;11.20;99.90
29713;DHT22;16623;53.632;10.016;2023-03-23T04:50:19;11.20;99.90
29713;DHT22;16623;53.632;10.016;2023-03-23T04:52:45;11.20;99.90
29713;DHT22;16623;53.632;10.016;2023-03-23T04:55:12;11.20;99.90
29713;DHT22;16623;53.632;10.016;2023-03-23T04:57:38;11.20;99.90
29713;DHT22;16623;53.632;10.016;2023-03-23T05:00:05;11.20;99.90
29713;DHT22;16623;53.632;10.016;2023-03-23T05:02:35;11.20;99.90
29713;DHT22;16623;53.632;10.016;2023-03-23T05:05:01;11.20;99.90
29713;DHT22;16623;53.632;10.016;2023-03-23T05:07:26;11.10;99.90
29713;DHT22;16623;53.632;10.016;2023-03-23T05:09:52;11.10;99.90
29713;DHT22;16623;53.632;10.016;2023-03-23T05:12:18;11.20;99.90
29713;DHT22;16623;53.632;10.016;2023-03-23T05:14:43;11.20;99.90
29713;DHT22;16623;53.632;10.016;2023-03-23T05:17:09;11.30;99.90
29713;DHT22;16623;53.632;10.016;2023-03-23T05:19:35;11.30;99.90
29713;DHT22;16623;53.632;10.016;2023-03-23T05:22:02;11.30;99.90
29713;DHT22;16623;53.632;10.016;2023-03-23T05:24:30;11.30;99.90
29713;DHT22;16623;53.632;10.016;2023-03-23T05:27:01;11.40;99.90
29713;DHT22;16623;53.632;10.016;2023-03-23T05:29:28;11.30;99.90
29713;DHT22;16623;53.632;10.016;2023-03-23T05:31:56;11.30;99.90
29713;DHT22;16623;53.632;10.016;2023-03-23T05:34:27;11.40;99.90
29713;DHT22;16623;53.632;10.016;2023-03-23T05:36:54;11.50;99.90
29713;DHT22;16623;53.632;10.016;2023-03-23T05:41:46;11.40;99.90
29713;DHT22;16623;53.632;10.016;2023-03-23T05:44:12;11.40;99.90
29713;DHT22;16623;53.632;10.016;2023-03-23T05:46:38;11.50;99.90
29713;DHT22;16623;53.632;10.016;2023-03-23T05:49:04;11.40;99.90
29713;DHT22;16623;53.632;10.016;2023-03-23T05:51:30;11.30;99.90
29713;DHT22;16623;53.632;10.016;2023-03-23T05:53:55;11.40;99.90
29713;DHT22;16623;53.632;10.016;2023-03-23T05:56:21;11.30;99.90
29713;DHT22;16623;53.632;10.016;2023-03-23T05:58:47;11.30;99.90
29713;DHT22;16623;53.632;10.016;2023-03-23T06:01:12;11.30;99.90
29713;DHT22;16623;53.632;10.016;2023-03-23T06:03:39;11.30;99.90
29713;DHT22;16623;53.632;10.016;2023-03-23T06:06:05;11.30;99.90
29713;DHT22;16623;53.632;10.016;2023-03-23T06:08:31;11.30;99.90
29713;DHT22;16623;53.632;10.016;2023-03-23T06:10:56;11.40;99.90
29713;DHT22;16623;53.632;10.016;2023-03-23T06:13:22;11.30;99.90
29713;DHT22;16623;53.632;10.016;2023-03-23T06:15:48;11.40;99.90
29713;DHT22;16623;53.632;10.016;2023-03-23T06:20:41;11.30;99.90
29713;DHT22;16623;53.632;10.016;2023-03-23T06:23:09;11.30;99.90
29713;DHT22;16623;53.632;10.016;2023-03-23T06:25:34;11.30;99.90
29713;DHT22;16623;53.632;10.016;2023-03-23T06:28:00;11.30;99.90
29713;DHT22;16623;53.632;10.016;2023-03-23T06:30:26;11.40;99.90
29713;DHT22;16623;53.632;10.016;2023-03-23T06:32:52;11.40;99.90
29713;DHT22;16623;53.632;10.016;2023-03-23T06:35:18;11.40;99.90
29713;DHT22;16623;53.632;10.016;2023-03-23T06:37:44;11.30;99.90
29713;DHT22;16623;53.632;10.016;2023-03-23T06:40:10;11.40;99.90
29713;DHT22;16623;53.632;10.016;2023-03-23T06:42:36;11.60;99.90
29713;DHT22;16623;53.632;10.016;2023-03-23T06:45:05;11.70;99.90
29713;DHT22;16623;53.632;10.016;2023-03-23T06:47:31;11.70;99.90
29713;DHT22;16623;53.632;10.016;2023-03-23T06:49:58;11.90;99.90
29713;DHT22;16623;53.632;10.016;2023-03-23T06:52:24;11.80;99.90
29713;DHT22;16623;53.632;10.016;2023-03-23T06:54:51;11.80;99.90
29713;DHT22;16623;53.632;10.016;2023-03-23T06:57:16;11.90;99.90
29713;DHT22;16623;53.632;10.016;2023-03-23T06:59:43;11.90;99.90
29713;DHT22;16623;53.632;10.016;2023-03-23T07:02:12;12.00;99.90
29713;DHT22;16623;53.632;10.016;2023-03-23T07:04:40;12.00;99.90
29713;DHT22;16623;53.632;10.016;2023-03-23T07:07:08;12.00;99.90
29713;DHT22;16623;53.632;10.016;2023-03-23T07:09:33;12.00;99.90
29713;DHT22;16623;53.632;10.016;2023-03-23T07:11:59;12.20;99.90
29713;DHT22;16623;53.632;10.016;2023-03-23T07:14:24;12.20;99.90
29713;DHT22;16623;53.632;10.016;2023-03-23T07:16:50;12.20;99.90
29713;DHT22;16623;53.632;10.016;2023-03-23T07:19:15;12.20;99.90
29713;DHT22;16623;53.632;10.016;2023-03-23T07:21:41;12.20;99.90
29713;DHT22;16623;53.632;10.016;2023-03-23T07:24:11;12.30;99.90
29713;DHT22;16623;53.632;10.016;2023-03-23T07:26:41;12.20;99.90
29713;DHT22;16623;53.632;10.016;2023-03-23T07:29:09;12.30;99.90
29713;DHT22;16623;53.632;10.016;2023-03-23T07:31:35;12.30;99.90
29713;DHT22;16623;53.632;10.016;2023-03-23T07:34:01;12.30;99.90
29713;DHT22;16623;53.632;10.016;2023-03-23T07:36:28;12.40;99.90
29713;DHT22;16623;53.632;10.016;2023-03-23T07:38:53;12.50;99.90
29713;DHT22;16623;53.632;10.016;2023-03-23T07:41:20;12.50;99.90
29713;DHT22;16623;53.632;10.016;2023-03-23T07:43:46;12.60;99.90
29713;DHT22;16623;53.632;10.016;2023-03-23T07:46:12;12.60;99.90
29713;DHT22;16623;53.632;10.016;2023-03-23T07:48:38;12.60;99.90
29713;DHT22;16623;53.632;10.016;2023-03-23T07:51:05;12.50;99.90
29713;DHT22;16623;53.632;10.016;2023-03-23T07:53:30;12.40;99.90
29713;DHT22;16623;53.632;10.016;2023-03-23T07:55:57;12.40;99.90
29713;DHT22;16623;53.632;10.016;2023-03-23T07:58:22;12.30;99.90
29713;DHT22;16623;53.632;10.016;2023-03-23T08:00:48;12.10;99.90
29713;DHT22;16623;53.632;10.016;2023-03-23T08:03:15;11.10;99.90
29713;DHT22;16623;53.632;10.016;2023-03-23T08:05:42;11.90;99.90
29713;DHT22;16623;53.632;10.016;2023-03-23T08:08:09;11.80;99.90
29713;DHT22;16623;53.632;10.016;2023-03-23T08:10:35;11.80;99.90
29713;DHT22;16623;53.632;10.016;2023-03-23T08:13:02;11.60;99.90
29713;DHT22;16623;53.632;10.016;2023-03-23T08:15:28;11.50;99.90
29713;DHT22;16623;53.632;10.016;2023-03-23T08:17:54;11.30;99.90
29713;DHT22;16623;53.632;10.016;2023-03-23T08:20:20;11.10;99.90
29713;DHT22;16623;53.632;10.016;2023-03-23T08:22:50;11.00;99.90
29713;DHT22;16623;53.632;10.016;2023-03-23T08:25:18;10.90;99.90
29713;DHT22;16623;53.632;10.016;2023-03-23T08:27:44;10.70;99.90
29713;DHT22;16623;53.632;10.016;2023-03-23T08:30:12;10.50;99.90
29713;DHT22;16623;53.632;10.016;2023-03-23T08:32:39;10.50;99.90
29713;DHT22;16623;53.632;10.016;2023-03-23T08:35:05;10.50;99.90
29713;DHT22;16623;53.632;10.016;2023-03-23T08:37:31;10.40;99.90
29713;DHT22;16623;53.632;10.016;2023-03-23T08:39:57;10.50;99.90
29713;DHT22;16623;53.632;10.016;2023-03-23T08:42:24;10.50;99.90
29713;DHT22;16623;53.632;10.016;2023-03-23T08:44:51;10.60;99.90
29713;DHT22;16623;53.632;10.016;2023-03-23T08:47:17;10.60;99.90
29713;DHT22;16623;53.632;10.016;2023-03-23T08:49:43;10.60;99.90
29713;DHT22;16623;53.632;10.016;2023-03-23T08:52:10;10.80;99.90
29713;DHT22;16623;53.632;10.016;2023-03-23T08:54:36;10.90;99.90
29713;DHT22;16623;53.632;10.016;2023-03-23T08:57:02;11.00;99.90
29713;DHT22;16623;53.632;10.016;2023-03-23T08:59:28;11.30;99.90
29713;DHT22;16623;53.632;10.016;2023-03-23T09:01:54;11.50;99.90
29713;DHT22;16623;53.632;10.016;2023-03-23T09:04:20;11.60;99.90
29713;DHT22;16623;53.632;10.016;2023-03-23T09:06:46;11.80;99.90
29713;DHT22;16623;53.632;10.016;2023-03-23T09:09:12;11.90;99.90
29713;DHT22;16623;53.632;10.016;2023-03-23T09:11:38;12.10;99.90
29713;DHT22;16623;53.632;10.016;2023-03-23T09:14:06;12.10;99.90
29713;DHT22;16623;53.632;10.016;2023-03-23T09:16:33;12.10;99.90
29713;DHT22;16623;53.632;10.016;2023-03-23T09:18:59;12.10;99.90
29713;DHT22;16623;53.632;10.016;2023-03-23T09:21:26;12.20;99.90
29713;DHT22;16623;53.632;10.016;2023-03-23T09:23:52;12.20;99.90
29713;DHT22;16623;53.632;10.016;2023-03-23T09:26:19;12.10;99.90
29713;DHT22;16623;53.632;10.016;2023-03-23T09:28:45;12.20;99.90
29713;DHT22;16623;53.632;10.016;2023-03-23T09:31:11;12.20;99.90
29713;DHT22;16623;53.632;10.016;2023-03-23T09:33:38;12.30;99.90
29713;DHT22;16623;53.632;10.016;2023-03-23T09:36:04;12.30;99.90
29713;DHT22;16623;53.632;10.016;2023-03-23T09:38:31;12.30;99.90
29713;DHT22;16623;53.632;10.016;2023-03-23T09:41:35;12.30;99.90
29713;DHT22;16623;53.632;10.016;2023-03-23T09:47:23;12.50;99.90
29713;DHT22;16623;53.632;10.016;2023-03-23T09:49:56;12.50;99.90
29713;DHT22;16623;53.632;10.016;2023-03-23T09:52:43;12.70;99.90
29713;DHT22;16623;53.632;10.016;2023-03-23T09:55:15;12.70;99.90
29713;DHT22;16623;53.632;10.016;2023-03-23T09:57:51;12.90;99.90
29713;DHT22;16623;53.632;10.016;2023-03-23T10:00:32;12.90;99.90
29713;DHT22;16623;53.632;10.016;2023-03-23T10:03:14;13.00;99.90
29713;DHT22;16623;53.632;10.016;2023-03-23T10:05:49;13.20;99.90
29713;DHT22;16623;53.632;10.016;2023-03-23T10:08:20;13.10;99.90
29713;DHT22;16623;53.632;10.016;2023-03-23T10:11:14;13.30;99.90
29713;DHT22;16623;53.632;10.016;2023-03-23T10:13:52;13.20;99.90
29713;DHT22;16623;53.632;10.016;2023-03-23T10:16:31;13.10;99.90
29713;DHT22;16623;53.632;10.016;2023-03-23T10:19:12;13.20;99.90
29713;DHT22;16623;53.632;10.016;2023-03-23T10:21:45;13.20;99.90
29713;DHT22;16623;53.632;10.016;2023-03-23T10:24:15;13.30;99.90
29713;DHT22;16623;53.632;10.016;2023-03-23T10:26:54;13.50;99.90
29713;DHT22;16623;53.632;10.016;2023-03-23T10:29:24;13.90;99.90
29713;DHT22;16623;53.632;10.016;2023-03-23T10:32:03;14.20;99.90
29713;DHT22;16623;53.632;10.016;2023-03-23T10:39:46;14.70;99.90
29713;DHT22;16623;53.632;10.016;2023-03-23T10:42:33;14.70;99.90
29713;DHT22;16623;53.632;10.016;2023-03-23T10:45:26;14.70;99.90
29713;DHT22;16623;53.632;10.016;2023-03-23T10:47:56;14.70;99.90
29713;DHT22;16623;53.632;10.016;2023-03-23T10:50:30;14.70;99.90
29713;DHT22;16623;53.632;10.016;2023-03-23T10:52:59;14.70;99.90
29713;DHT22;16623;53.632;10.016;2023-03-23T10:55:39;14.50;99.90
29713;DHT22;16623;53.632;10.016;2023-03-23T10:58:11;14.30;99.90
29713;DHT22;16623;53.632;10.016;2023-03-23T11:00:46;14.20;99.90
29713;DHT22;16623;53.632;10.016;2023-03-23T11:05:55;13.90;99.90
29713;DHT22;16623;53.632;10.016;2023-03-23T11:08:27;13.80;99.90
29713;DHT22;16623;53.632;10.016;2023-03-23T11:11:17;14.00;99.90
29713;DHT22;16623;53.632;10.016;2023-03-23T11:13:45;14.10;99.90
29713;DHT22;16623;53.632;10.016;2023-03-23T11:16:23;14.40;99.90
29713;DHT22;16623;53.632;10.016;2023-03-23T11:18:48;14.20;99.90
29713;DHT22;16623;53.632;10.016;2023-03-23T11:21:14;14.10;99.90
29713;DHT22;16623;53.632;10.016;2023-03-23T11:23:43;14.20;99.90
29713;DHT22;16623;53.632;10.016;2023-03-23T11:26:26;14.30;99.90
29713;DHT22;16623;53.632;10.016;2023-03-23T11:28:57;14.30;99.90
29713;DHT22;16623;53.632;10.016;2023-03-23T11:31:31;14.40;99.90
29713;DHT22;16623;53.632;10.016;2023-03-23T11:34:03;14.40;99.90
29713;DHT22;16623;53.632;10.016;2023-03-23T11:36:37;14.30;99.90
29713;DHT22;16623;53.632;10.016;2023-03-23T11:39:26;14.20;99.90
29713;DHT22;16623;53.632;10.016;2023-03-23T11:41:53;14.20;99.90
29713;DHT22;16623;53.632;10.016;2023-03-23T11:44:21;14.30;99.90
29713;DHT22;16623;53.632;10.016;2023-03-23T11:47:01;14.40;99.90
29713;DHT22;16623;53.632;10.016;2023-03-23T11:49:45;14.30;99.90
29713;DHT22;16623;53.632;10.016;2023-03-23T11:52:23;14.50;99.90
29713;DHT22;16623;53.632;10.016;2023-03-23T11:57:40;14.70;99.90
29713;DHT22;16623;53.632;10.016;2023-03-23T12:00:24;14.90;99.90
29713;DHT22;16623;53.632;10.016;2023-03-23T12:03:26;14.80;99.90
29713;DHT22;16623;53.632;10.016;2023-03-23T12:06:05;14.70;99.90
29713;DHT22;16623;53.632;10.016;2023-03-23T12:14:39;14.20;99.90
29713;DHT22;16623;53.632;10.016;2023-03-23T12:22:58;13.90;99.90
29713;DHT22;16623;53.632;10.016;2023-03-23T12:28:26;13.90;99.90
29713;DHT22;16623;53.632;10.016;2023-03-23T12:31:16;13.90;99.90
29713;DHT22;16623;53.632;10.016;2023-03-23T12:34:03;13.80;99.90
29713;DHT22;16623;53.632;10.016;2023-03-23T12:44:50;13.70;99.90
29713;DHT22;16623;53.632;10.016;2023-03-23T12:47:39;13.80;99.90
29713;DHT22;16623;53.632;10.016;2023-03-23T12:50:14;13.90;99.90
29713;DHT22;16623;53.632;10.016;2023-03-23T12:55:42;14.00;99.90
29713;DHT22;16623;53.632;10.016;2023-03-23T12:58:17;14.00;99.90
29713;DHT22;16623;53.632;10.016;2023-03-23T13:03:39;13.80;99.90
29713;DHT22;16623;53.632;10.016;2023-03-23T13:06:31;13.70;99.90
29713;DHT22;16623;53.632;10.016;2023-03-23T13:09:07;13.80;99.90
29713;DHT22;16623;53.632;10.016;2023-03-23T13:11:40;14.10;99.90
29713;DHT22;16623;53.632;10.016;2023-03-23T13:14:42;14.40;99.90
29713;DHT22;16623;53.632;10.016;2023-03-23T13:17:32;14.60;99.90
29713;DHT22;16623;53.632;10.016;2023-03-23T13:20:41;14.70;99.90
29713;DHT22;16623;53.632;10.016;2023-03-23T13:23:22;14.90;99.90
29713;DHT22;16623;53.632;10.016;2023-03-23T13:25:58;15.00;99.90
29713;DHT22;16623;53.632;10.016;2023-03-23T13:28:29;15.10;99.90
29713;DHT22;16623;53.632;10.016;2023-03-23T13:33:23;15.00;99.90
29713;DHT22;16623;53.632;10.016;2023-03-23T13:35:50;15.00;99.90
29713;DHT22;16623;53.632;10.016;2023-03-23T13:38:24;15.00;99.90
29713;DHT22;16623;53.632;10.016;2023-03-23T13:40:51;15.10;99.90
29713;DHT22;16623;53.632;10.016;2023-03-23T13:43:27;15.00;99.90
29713;DHT22;16623;53.632;10.016;2023-03-23T13:45:53;14.80;99.90
29713;DHT22;16623;53.632;10.016;2023-03-23T13:48:43;14.60;99.90
29713;DHT22;16623;53.632;10.016;2023-03-23T13:57:00;14.30;99.90
29713;DHT22;16623;53.632;10.016;2023-03-23T14:01:53;13.70;99.90
29713;DHT22;16623;53.632;10.016;2023-03-23T14:04:21;12.60;99.90
29713;DHT22;16623;53.632;10.016;2023-03-23T14:06:49;11.60;99.90
29713;DHT22;16623;53.632;10.016;2023-03-23T14:09:19;10.50;99.90
29713;DHT22;16623;53.632;10.016;2023-03-23T14:11:54;10.40;99.90
29713;DHT22;16623;53.632;10.016;2023-03-23T14:14:30;10.10;99.90
29713;DHT22;16623;53.632;10.016;2023-03-23T14:17:18;9.90;99.90
29713;DHT22;16623;53.632;10.016;2023-03-23T14:19:50;9.60;99.90
29713;DHT22;16623;53.632;10.016;2023-03-23T14:22:19;9.50;99.90
29713;DHT22;16623;53.632;10.016;2023-03-23T14:24:47;9.60;99.90
29713;DHT22;16623;53.632;10.016;2023-03-23T14:27:20;9.70;99.90
29713;DHT22;16623;53.632;10.016;2023-03-23T14:29:46;9.80;99.90
29713;DHT22;16623;53.632;10.016;2023-03-23T14:32:23;10.00;99.90
29713;DHT22;16623;53.632;10.016;2023-03-23T14:34:52;10.10;99.90
29713;DHT22;16623;53.632;10.016;2023-03-23T14:37:18;10.40;99.90
29713;DHT22;16623;53.632;10.016;2023-03-23T14:39:49;10.60;99.90
29713;DHT22;16623;53.632;10.016;2023-03-23T14:42:26;10.70;99.90
29713;DHT22;16623;53.632;10.016;2023-03-23T14:44:53;10.80;99.90
29713;DHT22;16623;53.632;10.016;2023-03-23T14:47:35;10.90;99.90
29713;DHT22;16623;53.632;10.016;2023-03-23T14:50:04;11.10;99.90
29713;DHT22;16623;53.632;10.016;2023-03-23T14:52:35;11.20;99.90
29713;DHT22;16623;53.632;10.016;2023-03-23T14:55:17;11.20;99.90
29713;DHT22;16623;53.632;10.016;2023-03-23T14:57:43;11.30;99.90
29713;DHT22;16623;53.632;10.016;2023-03-23T15:00:15;11.40;99.90
29713;DHT22;16623;53.632;10.016;2023-03-23T15:02:45;11.50;99.90
29713;DHT22;16623;53.632;10.016;2023-03-23T15:05:16;11.60;99.90
29713;DHT22;16623;53.632;10.016;2023-03-23T15:07:45;11.60;99.90
29713;DHT22;16623;53.632;10.016;2023-03-23T15:10:17;11.50;99.90
29713;DHT22;16623;53.632;10.016;2023-03-23T15:12:45;11.60;99.90
29713;DHT22;16623;53.632;10.016;2023-03-23T15:15:24;11.70;99.90
29713;DHT22;16623;53.632;10.016;2023-03-23T15:17:51;11.70;99.90
29713;DHT22;16623;53.632;10.016;2023-03-23T15:20:32;11.70;99.90
29713;DHT22;16623;53.632;10.016;2023-03-23T15:23:15;11.70;99.90
29713;DHT22;16623;53.632;10.016;2023-03-23T15:25:49;11.60;99.90
29713;DHT22;16623;53.632;10.016;2023-03-23T15:28:21;11.60;99.90
29713;DHT22;16623;53.632;10.016;2023-03-23T15:30:57;11.70;99.90
29713;DHT22;16623;53.632;10.016;2023-03-23T15:33:25;11.70;99.90
29713;DHT22;16623;53.632;10.016;2023-03-23T15:35:56;11.90;99.90
29713;DHT22;16623;53.632;10.016;2023-03-23T15:38:30;12.00;99.90
29713;DHT22;16623;53.632;10.016;2023-03-23T15:40:58;11.80;99.90
29713;DHT22;16623;53.632;10.016;2023-03-23T15:46:01;11.80;99.90
29713;DHT22;16623;53.632;10.016;2023-03-23T15:48:46;11.80;99.90
29713;DHT22;16623;53.632;10.016;2023-03-23T15:51:12;11.60;99.90
29713;DHT22;16623;53.632;10.016;2023-03-23T15:53:39;11.40;99.90
29713;DHT22;16623;53.632;10.016;2023-03-23T15:56:06;11.40;99.90
29713;DHT22;16623;53.632;10.016;2023-03-23T15:58:33;9.70;99.90
29713;DHT22;16623;53.632;10.016;2023-03-23T16:01:03;11.30;99.90
29713;DHT22;16623;53.632;10.016;2023-03-23T16:03:44;11.40;99.90
29713;DHT22;16623;53.632;10.016;2023-03-23T16:06:12;11.20;99.90
29713;DHT22;16623;53.632;10.016;2023-03-23T16:08:38;11.20;99.90
29713;DHT22;16623;53.632;10.016;2023-03-23T16:11:08;11.20;99.90
29713;DHT22;16623;53.632;10.016;2023-03-23T16:13:34;11.10;99.90
29713;DHT22;16623;53.632;10.016;2023-03-23T16:15:59;11.20;99.90
29713;DHT22;16623;53.632;10.016;2023-03-23T16:18:24;11.10;99.90
29713;DHT22;16623;53.632;10.016;2023-03-23T16:20:50;11.20;99.90
29713;DHT22;16623;53.632;10.016;2023-03-23T16:23:16;11.10;99.90
29713;DHT22;16623;53.632;10.016;2023-03-23T16:25:42;11.00;99.90
29713;DHT22;16623;53.632;10.016;2023-03-23T16:28:11;11.00;99.90
29713;DHT22;16623;53.632;10.016;2023-03-23T16:30:37;10.90;99.90
29713;DHT22;16623;53.632;10.016;2023-03-23T16:33:03;10.90;99.90
29713;DHT22;16623;53.632;10.016;2023-03-23T16:35:28;10.90;99.90
29713;DHT22;16623;53.632;10.016;2023-03-23T16:37:55;10.80;99.90
29713;DHT22;16623;53.632;10.016;2023-03-23T16:40:22;10.80;99.90
29713;DHT22;16623;53.632;10.016;2023-03-23T16:42:48;10.70;99.90
29713;DHT22;16623;53.632;10.016;2023-03-23T16:45:16;10.70;99.90
29713;DHT22;16623;53.632;10.016;2023-03-23T16:47:42;10.60;99.90
29713;DHT22;16623;53.632;10.016;2023-03-23T16:50:10;10.60;99.90
29713;DHT22;16623;53.632;10.016;2023-03-23T16:52:37;10.50;99.90
29713;DHT22;16623;53.632;10.016;2023-03-23T16:55:04;10.00;99.90